sensor_id;sensor_type;location;lat;lon;timestamp;pressure;altitude;pressure_sealevel;temperature;humidity
48216;BME280;34005;48.844;10.098;2023-02-28T00:01:07;97264.06;;;-1.00;53.76
48216;BME280;34005;48.844;10.098;2023-02-28T00:03:35;97269.00;;;-0.97;53.84
48216;BME280;34005;48.844;10.098;2023-02-28T00:06:03;97268.91;;;-0.95;54.11
48216;BME280;34005;48.844;10.098;2023-02-28T00:08:31;97265.34;;;-0.93;54.06
48216;BME280;34005;48.844;10.098;2023-02-28T00:11:00;97256.03;;;-0.94;54.13
48216;BME280;34005;48.844;10.098;2023-02-28T00:13:28;97254.28;;;-0.93;54.06
48216;BME280;34005;48.844;10.098;2023-02-28T00:16:00;97251.78;;;-0.95;54.68
48216;BME280;34005;48.844;10.098;2023-02-28T00:18:29;97255.19;;;-0.94;54.55
48216;BME280;34005;48.844;10.098;2023-02-28T00:20:57;97256.03;;;-0.94;54.51
48216;BME280;34005;48.844;10.098;2023-02-28T00:23:25;97255.28;;;-0.96;54.48
48216;BME280;34005;48.844;10.098;2023-02-28T00:25:53;97251.19;;;-0.98;54.62
48216;BME280;34005;48.844;10.098;2023-02-28T00:28:21;97247.03;;;-1.01;54.54
48216;BME280;34005;48.844;10.098;2023-02-28T00:30:49;97256.56;;;-1.03;54.85
48216;BME280;34005;48.844;10.098;2023-02-28T00:33:16;97255.13;;;-1.07;54.94
48216;BME280;34005;48.844;10.098;2023-02-28T00:35:45;97247.63;;;-1.10;55.39
48216;BME280;34005;48.844;10.098;2023-02-28T00:38:15;97242.50;;;-1.10;55.26
48216;BME280;34005;48.844;10.098;2023-02-28T00:40:43;97251.84;;;-1.09;55.36
48216;BME280;34005;48.844;10.098;2023-02-28T00:43:10;97243.31;;;-1.10;55.47
48216;BME280;34005;48.844;10.098;2023-02-28T00:45:38;97247.44;;;-1.07;55.65
48216;BME280;34005;48.844;10.098;2023-02-28T00:48:05;97250.72;;;-1.05;55.66
48216;BME280;34005;48.844;10.098;2023-02-28T00:50:33;97247.25;;;-1.04;55.59
48216;BME280;34005;48.844;10.098;2023-02-28T00:53:02;97242.84;;;-1.02;55.99
48216;BME280;34005;48.844;10.098;2023-02-28T00:55:29;97247.91;;;-1.00;55.67
48216;BME280;34005;48.844;10.098;2023-02-28T00:57:57;97250.34;;;-0.99;55.93
48216;BME280;34005;48.844;10.098;2023-02-28T01:00:24;97248.50;;;-0.97;56.04
48216;BME280;34005;48.844;10.098;2023-02-28T01:02:52;97249.25;;;-0.95;55.98
48216;BME280;34005;48.844;10.098;2023-02-28T01:05:20;97247.41;;;-0.93;55.83
48216;BME280;34005;48.844;10.098;2023-02-28T01:07:47;97239.94;;;-0.96;56.04
48216;BME280;34005;48.844;10.098;2023-02-28T01:10:16;97239.06;;;-0.96;56.10
48216;BME280;34005;48.844;10.098;2023-02-28T01:12:44;97242.50;;;-0.96;56.04
48216;BME280;34005;48.844;10.098;2023-02-28T01:15:11;97241.56;;;-0.95;56.28
48216;BME280;34005;48.844;10.098;2023-02-28T01:17:39;97245.50;;;-0.89;56.43
48216;BME280;34005;48.844;10.098;2023-02-28T01:20:08;97241.81;;;-0.85;56.38
48216;BME280;34005;48.844;10.098;2023-02-28T01:22:36;97244.47;;;-0.87;56.22
48216;BME280;34005;48.844;10.098;2023-02-28T01:25:04;97240.16;;;-0.86;56.09
48216;BME280;34005;48.844;10.098;2023-02-28T01:27:34;97246.09;;;-0.86;56.11
48216;BME280;34005;48.844;10.098;2023-02-28T01:30:02;97238.53;;;-0.87;56.21
48216;BME280;34005;48.844;10.098;2023-02-28T01:32:29;97251.22;;;-0.86;56.08
48216;BME280;34005;48.844;10.098;2023-02-28T01:34:57;97244.38;;;-0.85;56.26
48216;BME280;34005;48.844;10.098;2023-02-28T01:37:24;97245.13;;;-0.83;56.35
48216;BME280;34005;48.844;10.098;2023-02-28T01:39:52;97244.19;;;-0.82;56.23
48216;BME280;34005;48.844;10.098;2023-02-28T01:42:20;97234.88;;;-0.83;56.20
48216;BME280;34005;48.844;10.098;2023-02-28T01:44:59;97245.19;;;-0.85;56.62
48216;BME280;34005;48.844;10.098;2023-02-28T01:47:31;97237.69;;;-0.88;56.68
48216;BME280;34005;48.844;10.098;2023-02-28T01:50:05;97236.16;;;-0.90;56.68
48216;BME280;34005;48.844;10.098;2023-02-28T01:52:33;97238.63;;;-0.89;56.46
48216;BME280;34005;48.844;10.098;2023-02-28T01:55:04;97236.06;;;-0.89;56.62
48216;BME280;34005;48.844;10.098;2023-02-28T01:57:35;97241.19;;;-0.89;56.56
48216;BME280;34005;48.844;10.098;2023-02-28T02:00:09;97234.22;;;-0.87;56.83
48216;BME280;34005;48.844;10.098;2023-02-28T02:02:41;97232.41;;;-0.85;56.63
48216;BME280;34005;48.844;10.098;2023-02-28T02:05:14;97234.03;;;-0.84;56.81
48216;BME280;34005;48.844;10.098;2023-02-28T02:07:44;97230.56;;;-0.82;56.67
48216;BME280;34005;48.844;10.098;2023-02-28T02:10:14;97224.63;;;-0.83;56.88
48216;BME280;34005;48.844;10.098;2023-02-28T02:13:00;97214.38;;;-0.83;57.38
48216;BME280;34005;48.844;10.098;2023-02-28T02:15:39;97213.53;;;-0.84;57.18
48216;BME280;34005;48.844;10.098;2023-02-28T02:18:17;97218.66;;;-0.84;57.31
48216;BME280;34005;48.844;10.098;2023-02-28T02:21:13;97222.31;;;-0.88;57.67
48216;BME280;34005;48.844;10.098;2023-02-28T02:24:26;97220.69;;;-0.89;57.86
48216;BME280;34005;48.844;10.098;2023-02-28T02:27:20;97218.13;;;-0.89;57.60
48216;BME280;34005;48.844;10.098;2023-02-28T02:30:08;97219.97;;;-0.91;57.81
48216;BME280;34005;48.844;10.098;2023-02-28T02:35:55;97214.84;;;-0.91;57.48
48216;BME280;34005;48.844;10.098;2023-02-28T02:38:32;97218.22;;;-0.90;57.81
48216;BME280;34005;48.844;10.098;2023-02-28T02:41:06;97219.97;;;-0.91;57.90
48216;BME280;34005;48.844;10.098;2023-02-28T02:43:39;97221.06;;;-0.95;57.62
48216;BME280;34005;48.844;10.098;2023-02-28T02:46:12;97220.25;;;-0.95;58.11
48216;BME280;34005;48.844;10.098;2023-02-28T02:48:44;97221.06;;;-0.95;57.78
48216;BME280;34005;48.844;10.098;2023-02-28T02:51:16;97221.06;;;-0.95;58.02
48216;BME280;34005;48.844;10.098;2023-02-28T02:53:47;97222.00;;;-0.96;58.01
48216;BME280;34005;48.844;10.098;2023-02-28T02:56:19;97219.22;;;-0.93;57.99
48216;BME280;34005;48.844;10.098;2023-02-28T02:58:49;97223.34;;;-0.90;58.21
48216;BME280;34005;48.844;10.098;2023-02-28T03:01:21;97219.97;;;-0.91;57.96
48216;BME280;34005;48.844;10.098;2023-02-28T03:03:56;97208.91;;;-0.91;58.15
48216;BME280;34005;48.844;10.098;2023-02-28T03:06:26;97217.41;;;-0.91;58.21
48216;BME280;34005;48.844;10.098;2023-02-28T03:08:54;97219.03;;;-0.90;58.46
48216;BME280;34005;48.844;10.098;2023-02-28T03:11:22;97214.75;;;-0.89;58.16
48216;BME280;34005;48.844;10.098;2023-02-28T03:14:14;97218.03;;;-0.87;59.05
48216;BME280;34005;48.844;10.098;2023-02-28T03:16:59;97219.69;;;-0.86;58.54
48216;BME280;34005;48.844;10.098;2023-02-28T03:19:45;97220.59;;;-0.87;58.84
48216;BME280;34005;48.844;10.098;2023-02-28T03:22:23;97216.28;;;-0.87;58.52
48216;BME280;34005;48.844;10.098;2023-02-28T03:24:57;97222.16;;;-0.85;58.30
48216;BME280;34005;48.844;10.098;2023-02-28T03:27:29;97221.13;;;-0.82;58.24
48216;BME280;34005;48.844;10.098;2023-02-28T03:30:01;97221.94;;;-0.81;58.34
48216;BME280;34005;48.844;10.098;2023-02-28T03:32:34;97219.22;;;-0.78;58.22
48216;BME280;34005;48.844;10.098;2023-02-28T03:35:08;97215.63;;;-0.76;58.32
48216;BME280;34005;48.844;10.098;2023-02-28T03:37:41;97214.91;;;-0.78;58.22
48216;BME280;34005;48.844;10.098;2023-02-28T03:40:10;97220.75;;;-0.76;58.67
48216;BME280;34005;48.844;10.098;2023-02-28T03:42:42;97220.31;;;-0.82;57.78
48216;BME280;34005;48.844;10.098;2023-02-28T03:45:14;97226.72;;;-0.90;58.09
48216;BME280;34005;48.844;10.098;2023-02-28T03:47:47;97225.16;;;-0.92;58.18
48216;BME280;34005;48.844;10.098;2023-02-28T03:50:20;97217.78;;;-0.97;58.21
48216;BME280;34005;48.844;10.098;2023-02-28T03:52:53;97226.56;;;-1.01;58.40
48216;BME280;34005;48.844;10.098;2023-02-28T03:55:28;97226.97;;;-1.07;58.24
48216;BME280;34005;48.844;10.098;2023-02-28T03:58:01;97217.72;;;-1.10;58.67
48216;BME280;34005;48.844;10.098;2023-02-28T04:00:35;97221.19;;;-1.11;58.43
48216;BME280;34005;48.844;10.098;2023-02-28T04:03:04;97228.34;;;-1.16;58.42
48216;BME280;34005;48.844;10.098;2023-02-28T04:05:32;97224.41;;;-1.21;58.40
48216;BME280;34005;48.844;10.098;2023-02-28T04:08:06;97238.31;;;-1.26;59.00
48216;BME280;34005;48.844;10.098;2023-02-28T04:10:36;97231.63;;;-1.28;58.70
48216;BME280;34005;48.844;10.098;2023-02-28T04:13:03;97233.56;;;-1.32;58.65
48216;BME280;34005;48.844;10.098;2023-02-28T04:15:31;97235.38;;;-1.34;58.67
48216;BME280;34005;48.844;10.098;2023-02-28T04:17:59;97243.97;;;-1.35;58.90
48216;BME280;34005;48.844;10.098;2023-02-28T04:20:26;97239.03;;;-1.38;58.94
48216;BME280;34005;48.844;10.098;2023-02-28T04:22:54;97237.41;;;-1.39;59.38
48216;BME280;34005;48.844;10.098;2023-02-28T04:25:23;97240.69;;;-1.37;59.22
48216;BME280;34005;48.844;10.098;2023-02-28T04:27:50;97239.03;;;-1.38;59.11
48216;BME280;34005;48.844;10.098;2023-02-28T04:30:18;97233.91;;;-1.38;59.28
48216;BME280;34005;48.844;10.098;2023-02-28T04:32:46;97241.50;;;-1.36;59.38
48216;BME280;34005;48.844;10.098;2023-02-28T04:35:14;97245.81;;;-1.37;59.36
48216;BME280;34005;48.844;10.098;2023-02-28T04:37:42;97246.81;;;-1.39;59.48
48216;BME280;34005;48.844;10.098;2023-02-28T04:40:10;97235.03;;;-1.42;59.53
48216;BME280;34005;48.844;10.098;2023-02-28T04:42:39;97236.88;;;-1.44;59.75
48216;BME280;34005;48.844;10.098;2023-02-28T04:45:09;97248.19;;;-1.48;59.58
48216;BME280;34005;48.844;10.098;2023-02-28T04:47:37;97239.78;;;-1.50;59.79
48216;BME280;34005;48.844;10.098;2023-02-28T04:50:05;97251.66;;;-1.49;59.76
48216;BME280;34005;48.844;10.098;2023-02-28T04:52:32;97247.44;;;-1.50;59.74
48216;BME280;34005;48.844;10.098;2023-02-28T04:55:00;97251.75;;;-1.51;59.92
48216;BME280;34005;48.844;10.098;2023-02-28T04:57:28;97249.19;;;-1.51;59.93
48216;BME280;34005;48.844;10.098;2023-02-28T04:59:57;97242.41;;;-1.52;60.07
48216;BME280;34005;48.844;10.098;2023-02-28T05:02:25;97250.19;;;-1.53;60.12
48216;BME280;34005;48.844;10.098;2023-02-28T05:04:52;97256.97;;;-1.52;60.11
48216;BME280;34005;48.844;10.098;2023-02-28T05:07:20;97258.59;;;-1.51;59.94
48216;BME280;34005;48.844;10.098;2023-02-28T05:09:47;97245.78;;;-1.51;60.09
48216;BME280;34005;48.844;10.098;2023-02-28T05:12:15;97246.53;;;-1.49;60.13
48216;BME280;34005;48.844;10.098;2023-02-28T05:14:43;97253.31;;;-1.48;60.23
48216;BME280;34005;48.844;10.098;2023-02-28T05:17:12;97254.03;;;-1.46;60.51
48216;BME280;34005;48.844;10.098;2023-02-28T05:19:40;97247.19;;;-1.46;60.27
48216;BME280;34005;48.844;10.098;2023-02-28T05:22:13;97245.34;;;-1.43;60.79
48216;BME280;34005;48.844;10.098;2023-02-28T05:24:40;97240.88;;;-1.40;60.30
48216;BME280;34005;48.844;10.098;2023-02-28T05:27:09;97252.75;;;-1.39;60.43
48216;BME280;34005;48.844;10.098;2023-02-28T05:29:37;97242.50;;;-1.39;60.28
48216;BME280;34005;48.844;10.098;2023-02-28T05:32:13;97250.38;;;-1.42;60.33
48216;BME280;34005;48.844;10.098;2023-02-28T05:34:40;97249.66;;;-1.44;60.04
48216;BME280;34005;48.844;10.098;2023-02-28T05:37:11;97244.53;;;-1.44;60.61
48216;BME280;34005;48.844;10.098;2023-02-28T05:39:40;97246.91;;;-1.41;60.29
48216;BME280;34005;48.844;10.098;2023-02-28T05:42:08;97258.06;;;-1.42;60.24
48216;BME280;34005;48.844;10.098;2023-02-28T05:44:36;97258.88;;;-1.41;60.32
48216;BME280;34005;48.844;10.098;2023-02-28T05:47:03;97262.25;;;-1.41;60.31
48216;BME280;34005;48.844;10.098;2023-02-28T05:49:32;97254.78;;;-1.44;60.44
48216;BME280;34005;48.844;10.098;2023-02-28T05:52:00;97242.88;;;-1.45;60.50
48216;BME280;34005;48.844;10.098;2023-02-28T05:54:28;97243.81;;;-1.46;60.48
48216;BME280;34005;48.844;10.098;2023-02-28T05:56:55;97249.81;;;-1.47;60.46
48216;BME280;34005;48.844;10.098;2023-02-28T05:59:23;97258.22;;;-1.45;60.59
48216;BME280;34005;48.844;10.098;2023-02-28T06:01:51;97251.28;;;-1.43;60.60
48216;BME280;34005;48.844;10.098;2023-02-28T06:04:20;97260.63;;;-1.42;60.50
48216;BME280;34005;48.844;10.098;2023-02-28T06:06:58;97252.03;;;-1.41;60.62
48216;BME280;34005;48.844;10.098;2023-02-28T06:09:26;97252.28;;;-1.46;60.45
48216;BME280;34005;48.844;10.098;2023-02-28T06:11:54;97268.47;;;-1.45;60.83
48216;BME280;34005;48.844;10.098;2023-02-28T06:14:21;97256.41;;;-1.43;60.79
48216;BME280;34005;48.844;10.098;2023-02-28T06:16:49;97273.50;;;-1.43;60.57
48216;BME280;34005;48.844;10.098;2023-02-28T06:19:17;97272.50;;;-1.41;60.59
48216;BME280;34005;48.844;10.098;2023-02-28T06:21:44;97275.06;;;-1.41;60.47
48216;BME280;34005;48.844;10.098;2023-02-28T06:24:13;97271.75;;;-1.43;60.57
48216;BME280;34005;48.844;10.098;2023-02-28T06:26:41;97278.53;;;-1.42;60.65
48216;BME280;34005;48.844;10.098;2023-02-28T06:29:08;97280.38;;;-1.44;60.65
48216;BME280;34005;48.844;10.098;2023-02-28T06:31:37;97285.38;;;-1.42;60.43
48216;BME280;34005;48.844;10.098;2023-02-28T06:34:05;97281.09;;;-1.42;60.59
48216;BME280;34005;48.844;10.098;2023-02-28T06:36:33;97281.84;;;-1.40;60.55
48216;BME280;34005;48.844;10.098;2023-02-28T06:39:00;97290.41;;;-1.41;60.42
48216;BME280;34005;48.844;10.098;2023-02-28T06:41:29;97284.41;;;-1.40;60.58
48216;BME280;34005;48.844;10.098;2023-02-28T06:44:17;97292.06;;;-1.40;60.40
48216;BME280;34005;48.844;10.098;2023-02-28T06:46:45;97289.59;;;-1.41;60.45
48216;BME280;34005;48.844;10.098;2023-02-28T06:49:13;97293.03;;;-1.42;60.30
48216;BME280;34005;48.844;10.098;2023-02-28T06:51:42;97293.16;;;-1.44;60.52
48216;BME280;34005;48.844;10.098;2023-02-28T06:54:11;97283.75;;;-1.43;60.66
48216;BME280;34005;48.844;10.098;2023-02-28T06:56:40;97290.59;;;-1.44;60.57
48216;BME280;34005;48.844;10.098;2023-02-28T06:59:08;97287.13;;;-1.43;60.76
48216;BME280;34005;48.844;10.098;2023-02-28T07:01:35;97287.75;;;-1.39;60.72
48216;BME280;34005;48.844;10.098;2023-02-28T07:04:05;97291.69;;;-1.34;60.64
48216;BME280;34005;48.844;10.098;2023-02-28T07:06:33;97292.13;;;-1.27;60.78
48216;BME280;34005;48.844;10.098;2023-02-28T07:09:00;97302.84;;;-1.20;60.70
48216;BME280;34005;48.844;10.098;2023-02-28T07:11:28;97300.84;;;-1.15;60.45
48216;BME280;34005;48.844;10.098;2023-02-28T07:13:57;97310.06;;;-1.13;60.01
48216;BME280;34005;48.844;10.098;2023-02-28T07:16:25;97299.03;;;-1.13;60.05
48216;BME280;34005;48.844;10.098;2023-02-28T07:18:53;97310.00;;;-1.11;59.98
48216;BME280;34005;48.844;10.098;2023-02-28T07:21:21;97321.78;;;-1.09;59.97
48216;BME280;34005;48.844;10.098;2023-02-28T07:23:49;97322.59;;;-1.08;60.17
48216;BME280;34005;48.844;10.098;2023-02-28T07:26:18;97328.38;;;-1.05;59.76
48216;BME280;34005;48.844;10.098;2023-02-28T07:28:47;97330.81;;;-1.03;59.56
48216;BME280;34005;48.844;10.098;2023-02-28T07:31:17;97332.47;;;-1.02;59.89
48216;BME280;34005;48.844;10.098;2023-02-28T07:33:45;97328.81;;;-0.98;59.99
48216;BME280;34005;48.844;10.098;2023-02-28T07:36:14;97326.59;;;-0.90;59.77
48216;BME280;34005;48.844;10.098;2023-02-28T07:38:45;97323.50;;;-0.80;59.56
48216;BME280;34005;48.844;10.098;2023-02-28T07:41:14;97327.41;;;-0.75;59.40
48216;BME280;34005;48.844;10.098;2023-02-28T07:43:42;97332.81;;;-0.65;59.01
48216;BME280;34005;48.844;10.098;2023-02-28T07:46:13;97326.69;;;-0.63;58.88
48216;BME280;34005;48.844;10.098;2023-02-28T07:48:44;97321.06;;;-0.55;58.77
48216;BME280;34005;48.844;10.098;2023-02-28T07:51:12;97331.75;;;-0.48;58.65
48216;BME280;34005;48.844;10.098;2023-02-28T07:53:40;97329.09;;;-0.32;58.38
48216;BME280;34005;48.844;10.098;2023-02-28T07:56:07;97330.31;;;-0.11;57.85
48216;BME280;34005;48.844;10.098;2023-02-28T07:58:36;97324.03;;;0.20;57.26
48216;BME280;34005;48.844;10.098;2023-02-28T08:01:05;97326.13;;;0.67;56.50
48216;BME280;34005;48.844;10.098;2023-02-28T08:03:32;97325.19;;;1.56;55.24
48216;BME280;34005;48.844;10.098;2023-02-28T08:06:02;97333.41;;;2.09;53.11
48216;BME280;34005;48.844;10.098;2023-02-28T08:08:30;97329.34;;;2.53;52.55
48216;BME280;34005;48.844;10.098;2023-02-28T08:10:59;97341.03;;;3.26;51.06
48216;BME280;34005;48.844;10.098;2023-02-28T08:13:27;97334.94;;;3.94;49.56
48216;BME280;34005;48.844;10.098;2023-02-28T08:15:55;97326.75;;;4.63;48.00
48216;BME280;34005;48.844;10.098;2023-02-28T08:18:23;97326.00;;;4.93;47.49
48216;BME280;34005;48.844;10.098;2023-02-28T08:20:51;97320.72;;;5.35;46.68
48216;BME280;34005;48.844;10.098;2023-02-28T08:23:20;97329.28;;;5.86;44.96
48216;BME280;34005;48.844;10.098;2023-02-28T08:25:53;97331.25;;;6.32;43.46
48216;BME280;34005;48.844;10.098;2023-02-28T08:28:20;97326.97;;;6.70;43.15
48216;BME280;34005;48.844;10.098;2023-02-28T08:30:50;97334.84;;;6.98;42.40
48216;BME280;34005;48.844;10.098;2023-02-28T08:33:18;97328.00;;;7.34;41.88
48216;BME280;34005;48.844;10.098;2023-02-28T08:35:45;97330.06;;;7.58;41.12
48216;BME280;34005;48.844;10.098;2023-02-28T08:38:13;97319.69;;;7.58;40.78
48216;BME280;34005;48.844;10.098;2023-02-28T08:40:42;97320.22;;;7.62;40.62
48216;BME280;34005;48.844;10.098;2023-02-28T08:43:10;97320.56;;;7.95;41.11
48216;BME280;34005;48.844;10.098;2023-02-28T08:45:37;97322.72;;;7.81;40.28
48216;BME280;34005;48.844;10.098;2023-02-28T08:48:05;97313.41;;;7.61;40.46
48216;BME280;34005;48.844;10.098;2023-02-28T08:50:33;97322.88;;;7.52;41.52
48216;BME280;34005;48.844;10.098;2023-02-28T08:53:00;97334.28;;;7.41;41.45
48216;BME280;34005;48.844;10.098;2023-02-28T08:55:28;97329.84;;;7.24;41.16
48216;BME280;34005;48.844;10.098;2023-02-28T08:57:57;97330.44;;;7.08;41.16
48216;BME280;34005;48.844;10.098;2023-02-28T09:00:25;97334.63;;;7.19;41.85
48216;BME280;34005;48.844;10.098;2023-02-28T09:02:53;97328.31;;;7.31;41.11
48216;BME280;34005;48.844;10.098;2023-02-28T09:05:21;97330.34;;;7.37;40.94
48216;BME280;34005;48.844;10.098;2023-02-28T09:07:49;97327.44;;;7.40;40.65
48216;BME280;34005;48.844;10.098;2023-02-28T09:10:17;97328.13;;;7.42;40.70
48216;BME280;34005;48.844;10.098;2023-02-28T09:12:44;97331.69;;;7.41;40.38
48216;BME280;34005;48.844;10.098;2023-02-28T09:15:14;97335.41;;;7.29;41.46
48216;BME280;34005;48.844;10.098;2023-02-28T09:17:42;97331.47;;;7.25;40.99
48216;BME280;34005;48.844;10.098;2023-02-28T09:20:13;97337.22;;;7.19;40.85
48216;BME280;34005;48.844;10.098;2023-02-28T09:22:41;97331.00;;;7.02;40.52
48216;BME280;34005;48.844;10.098;2023-02-28T09:25:08;97349.75;;;6.67;41.01
48216;BME280;34005;48.844;10.098;2023-02-28T09:27:36;97332.34;;;6.39;41.44
48216;BME280;34005;48.844;10.098;2023-02-28T09:30:04;97337.66;;;6.18;41.09
48216;BME280;34005;48.844;10.098;2023-02-28T09:32:33;97338.81;;;5.75;41.43
48216;BME280;34005;48.844;10.098;2023-02-28T09:35:00;97328.06;;;5.40;41.84
48216;BME280;34005;48.844;10.098;2023-02-28T09:37:28;97332.75;;;5.15;42.49
48216;BME280;34005;48.844;10.098;2023-02-28T09:39:57;97335.66;;;5.01;42.91
48216;BME280;34005;48.844;10.098;2023-02-28T09:42:29;97335.56;;;5.02;43.01
48216;BME280;34005;48.844;10.098;2023-02-28T09:44:58;97337.22;;;5.13;43.80
48216;BME280;34005;48.844;10.098;2023-02-28T09:47:31;97340.88;;;5.31;43.01
48216;BME280;34005;48.844;10.098;2023-02-28T09:50:06;97332.03;;;5.44;42.50
48216;BME280;34005;48.844;10.098;2023-02-28T09:52:38;97340.19;;;5.39;42.91
48216;BME280;34005;48.844;10.098;2023-02-28T09:55:20;97331.06;;;5.35;42.42
48216;BME280;34005;48.844;10.098;2023-02-28T09:57:50;97334.22;;;5.39;43.17
48216;BME280;34005;48.844;10.098;2023-02-28T10:00:21;97336.94;;;5.37;42.92
48216;BME280;34005;48.844;10.098;2023-02-28T10:03:10;97346.16;;;5.30;42.28
48216;BME280;34005;48.844;10.098;2023-02-28T10:05:50;97346.69;;;5.24;42.48
48216;BME280;34005;48.844;10.098;2023-02-28T10:08:24;97349.69;;;5.29;42.58
48216;BME280;34005;48.844;10.098;2023-02-28T10:10:55;97343.16;;;5.25;42.68
48216;BME280;34005;48.844;10.098;2023-02-28T10:13:27;97350.16;;;5.13;42.46
48216;BME280;34005;48.844;10.098;2023-02-28T10:16:02;97355.13;;;4.95;42.74
48216;BME280;34005;48.844;10.098;2023-02-28T10:18:38;97351.34;;;4.78;42.80
48216;BME280;34005;48.844;10.098;2023-02-28T10:21:17;97354.94;;;4.66;43.27
48216;BME280;34005;48.844;10.098;2023-02-28T10:23:48;97352.88;;;4.60;43.56
48216;BME280;34005;48.844;10.098;2023-02-28T10:26:17;97349.00;;;4.54;43.98
48216;BME280;34005;48.844;10.098;2023-02-28T10:28:45;97348.06;;;4.55;44.22
48216;BME280;34005;48.844;10.098;2023-02-28T10:31:18;97352.41;;;4.54;44.07
48216;BME280;34005;48.844;10.098;2023-02-28T10:33:46;97352.56;;;4.53;44.50
48216;BME280;34005;48.844;10.098;2023-02-28T10:36:18;97354.75;;;4.58;44.52
48216;BME280;34005;48.844;10.098;2023-02-28T10:38:47;97337.47;;;4.79;44.01
48216;BME280;34005;48.844;10.098;2023-02-28T10:41:18;97344.19;;;5.12;43.03
48216;BME280;34005;48.844;10.098;2023-02-28T10:44:12;97342.38;;;5.44;42.52
48216;BME280;34005;48.844;10.098;2023-02-28T10:46:41;97346.72;;;5.84;42.48
48216;BME280;34005;48.844;10.098;2023-02-28T10:49:14;97354.03;;;6.29;41.58
48216;BME280;34005;48.844;10.098;2023-02-28T10:51:46;97357.00;;;6.73;41.16
48216;BME280;34005;48.844;10.098;2023-02-28T10:54:18;97353.81;;;6.98;40.36
48216;BME280;34005;48.844;10.098;2023-02-28T10:57:05;97355.78;;;7.24;39.64
48216;BME280;34005;48.844;10.098;2023-02-28T10:59:33;97343.94;;;7.49;39.28
48216;BME280;34005;48.844;10.098;2023-02-28T11:02:00;97343.53;;;7.72;38.92
48216;BME280;34005;48.844;10.098;2023-02-28T11:04:36;97342.97;;;7.96;38.58
48216;BME280;34005;48.844;10.098;2023-02-28T11:07:21;97346.19;;;8.25;36.75
48216;BME280;34005;48.844;10.098;2023-02-28T11:09:52;97338.28;;;8.45;37.75
48216;BME280;34005;48.844;10.098;2023-02-28T11:12:22;97347.53;;;8.65;37.49
48216;BME280;34005;48.844;10.098;2023-02-28T11:14:52;97341.47;;;8.83;37.19
48216;BME280;34005;48.844;10.098;2023-02-28T11:17:22;97339.00;;;8.99;36.91
48216;BME280;34005;48.844;10.098;2023-02-28T11:19:52;97339.28;;;9.22;36.25
48216;BME280;34005;48.844;10.098;2023-02-28T11:22:24;97332.50;;;9.38;35.73
48216;BME280;34005;48.844;10.098;2023-02-28T11:24:57;97328.81;;;9.48;35.20
48216;BME280;34005;48.844;10.098;2023-02-28T11:27:42;97329.84;;;9.56;34.20
48216;BME280;34005;48.844;10.098;2023-02-28T11:30:28;97335.72;;;9.66;33.95
48216;BME280;34005;48.844;10.098;2023-02-28T11:32:57;97332.63;;;9.70;34.74
48216;BME280;34005;48.844;10.098;2023-02-28T11:35:29;97334.47;;;9.78;34.05
48216;BME280;34005;48.844;10.098;2023-02-28T11:37:59;97334.50;;;9.95;34.37
48216;BME280;34005;48.844;10.098;2023-02-28T11:40:31;97320.16;;;9.99;33.40
48216;BME280;34005;48.844;10.098;2023-02-28T11:43:08;97330.59;;;9.99;33.40
48216;BME280;34005;48.844;10.098;2023-02-28T11:45:45;97328.66;;;10.09;33.29
48216;BME280;34005;48.844;10.098;2023-02-28T11:48:21;97332.25;;;10.16;32.96
48216;BME280;34005;48.844;10.098;2023-02-28T11:50:57;97332.59;;;10.21;32.84
48216;BME280;34005;48.844;10.098;2023-02-28T11:53:45;97332.97;;;10.35;32.60
48216;BME280;34005;48.844;10.098;2023-02-28T11:56:20;97316.66;;;10.49;33.02
48216;BME280;34005;48.844;10.098;2023-02-28T11:58:55;97328.25;;;10.63;32.40
48216;BME280;34005;48.844;10.098;2023-02-28T12:01:46;97321.22;;;10.71;31.59
48216;BME280;34005;48.844;10.098;2023-02-28T12:04:25;97327.91;;;10.74;32.28
48216;BME280;34005;48.844;10.098;2023-02-28T12:07:03;97322.50;;;10.76;31.94
48216;BME280;34005;48.844;10.098;2023-02-28T12:09:44;97332.63;;;10.79;31.88
48216;BME280;34005;48.844;10.098;2023-02-28T12:12:22;97325.75;;;10.94;31.51
48216;BME280;34005;48.844;10.098;2023-02-28T12:18:00;97335.56;;;10.92;31.81
48216;BME280;34005;48.844;10.098;2023-02-28T12:20:37;97330.53;;;10.82;31.64
48216;BME280;34005;48.844;10.098;2023-02-28T12:23:25;97327.56;;;10.69;31.42
48216;BME280;34005;48.844;10.098;2023-02-28T12:26:08;97338.19;;;10.51;32.06
48216;BME280;34005;48.844;10.098;2023-02-28T12:28:43;97320.38;;;10.22;32.21
48216;BME280;34005;48.844;10.098;2023-02-28T12:31:18;97323.75;;;9.98;32.72
48216;BME280;34005;48.844;10.098;2023-02-28T12:33:52;97328.94;;;9.81;32.71
48216;BME280;34005;48.844;10.098;2023-02-28T12:36:20;97324.63;;;9.56;33.22
48216;BME280;34005;48.844;10.098;2023-02-28T12:38:53;97319.44;;;9.21;33.42
48216;BME280;34005;48.844;10.098;2023-02-28T12:41:27;97317.16;;;8.92;33.89
48216;BME280;34005;48.844;10.098;2023-02-28T12:44:00;97316.03;;;8.69;34.33
48216;BME280;34005;48.844;10.098;2023-02-28T12:46:32;97318.75;;;8.41;34.57
48216;BME280;34005;48.844;10.098;2023-02-28T12:49:06;97307.75;;;8.11;35.45
48216;BME280;34005;48.844;10.098;2023-02-28T12:51:36;97300.16;;;8.00;35.97
48216;BME280;34005;48.844;10.098;2023-02-28T12:54:12;97300.78;;;7.94;36.39
48216;BME280;34005;48.844;10.098;2023-02-28T12:56:48;97303.19;;;7.95;36.24
48216;BME280;34005;48.844;10.098;2023-02-28T12:59:24;97298.09;;;7.86;36.11
48216;BME280;34005;48.844;10.098;2023-02-28T13:02:33;97310.06;;;7.69;36.73
48216;BME280;34005;48.844;10.098;2023-02-28T13:05:37;97305.63;;;7.61;36.93
48216;BME280;34005;48.844;10.098;2023-02-28T13:11:25;97295.03;;;7.45;37.18
48216;BME280;34005;48.844;10.098;2023-02-28T13:13:59;97291.28;;;7.29;37.30
48216;BME280;34005;48.844;10.098;2023-02-28T13:16:28;97299.66;;;7.23;37.54
48216;BME280;34005;48.844;10.098;2023-02-28T13:19:09;97289.03;;;7.16;38.03
48216;BME280;34005;48.844;10.098;2023-02-28T13:21:44;97296.94;;;7.15;38.01
48216;BME280;34005;48.844;10.098;2023-02-28T13:24:46;97292.88;;;7.12;38.59